Time;durP1;ratioP1;P1;durP2;ratioP2;P2;SDS_P1;SDS_P2;PMS_P1;PMS_P2;Temp;Humidity;BMP_temperature;BMP_pressure;BME280_temperature;BME280_humidity;BME280_pressure;Samples;Min_cycle;Max_cycle;Signal;HPM_P1;HPM_P2
2022/01/17 00:01:47;;;;;;;5.70;1.50;;;;;;;0.38;87.04;98305.78;4995487;28;20659;-68
2022/01/17 00:04:15;;;;;;;1.90;1.40;;;;;;;0.38;87.40;98304.00;4995542;28;20684;-67
2022/01/17 00:06:43;;;;;;;1.33;1.23;;;;;;;0.18;87.08;98290.31;4996780;28;20281;-70
2022/01/17 00:09:09;;;;;;;1.60;1.50;;;;;;;0.32;86.99;98319.50;5011826;28;20082;-69
2022/01/17 00:11:41;;;;;;;1.90;1.60;;;;;;;0.29;87.19;98316.22;4993777;28;20839;-67
2022/01/17 00:14:11;;;;;;;5.10;2.03;;;;;;;0.26;87.07;98316.53;4995083;28;20301;-68
2022/01/17 00:16:44;;;;;;;2.07;1.43;;;;;;;0.28;87.39;98321.59;4994912;28;20764;-67
2022/01/17 00:21:48;;;;;;;2.85;1.60;;;;;;;0.24;87.26;98312.44;4994987;28;20265;-66
2022/01/17 00:24:14;;;;;;;2.87;1.70;;;;;;;0.24;87.17;98315.84;4995231;28;20046;-66
2022/01/17 00:26:40;;;;;;;1.97;1.63;;;;;;;0.27;86.90;98314.72;4994761;28;20038;-67
2022/01/17 00:29:06;;;;;;;2.80;1.80;;;;;;;0.28;86.30;98321.59;4995495;28;20078;-66
2022/01/17 00:31:31;;;;;;;4.57;1.70;;;;;;;0.19;86.09;98299.81;5005044;28;20262;-66
2022/01/17 00:33:57;;;;;;;1.77;1.50;;;;;;;0.23;86.99;98311.59;4999223;28;20120;-68
2022/01/17 00:36:23;;;;;;;1.50;1.40;;;;;;;0.23;86.86;98300.31;4996246;28;20465;-68
2022/01/17 00:38:49;;;;;;;2.40;1.90;;;;;;;0.27;86.36;98293.78;4995179;28;20372;-68
2022/01/17 00:41:14;;;;;;;2.63;1.50;;;;;;;0.22;85.88;98301.28;4994699;28;20258;-65
2022/01/17 00:43:40;;;;;;;2.60;2.03;;;;;;;0.25;86.16;98304.41;4994382;28;20045;-67
2022/01/17 00:46:05;;;;;;;2.43;1.40;;;;;;;0.26;86.06;98285.09;4994977;28;20034;-67
2022/01/17 00:48:31;;;;;;;2.17;1.80;;;;;;;0.21;86.17;98276.91;4994573;28;20069;-66
2022/01/17 00:50:56;;;;;;;2.40;1.43;;;;;;;0.21;86.20;98279.53;4994875;28;20087;-66
2022/01/17 00:53:22;;;;;;;3.07;1.87;;;;;;;0.29;86.47;98287.44;4994418;28;20081;-68
2022/01/17 00:55:47;;;;;;;2.80;1.87;;;;;;;0.23;86.36;98277.56;4994479;28;20045;-67
2022/01/17 00:58:13;;;;;;;1.97;1.83;;;;;;;0.20;86.12;98263.97;4994102;28;20064;-67
2022/01/17 01:00:41;;;;;;;4.27;1.57;;;;;;;0.18;86.54;98266.75;4994498;28;20042;-67
2022/01/17 01:03:11;;;;;;;4.00;1.63;;;;;;;0.15;86.02;98250.56;4994071;28;20042;-67
2022/01/17 01:05:37;;;;;;;1.90;1.70;;;;;;;0.19;86.09;98255.31;4994465;28;20286;-70
2022/01/17 01:08:03;;;;;;;2.10;1.90;;;;;;;0.28;85.67;98253.53;4994249;28;20291;-67
2022/01/17 01:10:29;;;;;;;4.50;1.80;;;;;;;0.19;85.65;98242.22;4994358;28;20448;-68
2022/01/17 01:12:55;;;;;;;4.57;1.97;;;;;;;0.21;85.25;98240.28;4993915;28;20293;-68
2022/01/17 01:15:34;;;;;;;1.50;1.40;;;;;;;0.21;85.49;98249.91;4994358;28;20300;-68
2022/01/17 01:18:11;;;;;;;3.33;1.90;;;;;;;0.18;85.15;98250.25;4992998;28;20038;-67
2022/01/17 01:28:40;;;;;;;2.53;1.60;;;;;;;0.12;84.95;98225.53;4993956;28;20269;-66
2022/01/17 01:31:12;;;;;;;5.20;1.97;;;;;;;0.11;85.61;98223.88;4993949;28;20276;-68
2022/01/17 01:33:41;;;;;;;2.03;1.83;;;;;;;0.14;85.27;98227.97;4993586;28;20034;-67
2022/01/17 01:36:20;;;;;;;3.05;1.67;;;;;;;0.21;85.43;98219.31;4994126;28;20363;-67
2022/01/17 01:38:45;;;;;;;;;;;;;;;0.27;85.10;98226.53;4994451;28;20111;-66
2022/01/17 01:41:11;;;;;;;1.93;1.40;;;;;;;0.21;84.18;98205.41;4993593;28;19961;-67
2022/01/17 01:43:36;;;;;;;2.23;1.40;;;;;;;0.05;84.38;98190.50;4993655;28;20043;-66
2022/01/17 01:46:02;;;;;;;1.33;1.20;;;;;;;0.05;84.22;98179.22;4993336;28;20441;-67
2022/01/17 01:48:31;;;;;;;3.03;1.50;;;;;;;0.17;84.63;98196.25;4992195;28;20034;-68
2022/01/17 01:50:57;;;;;;;2.85;1.67;;;;;;;0.12;84.93;98178.41;4993656;28;20274;-66
2022/01/17 01:53:23;;;;;;;1.63;1.53;;;;;;;0.20;84.96;98194.13;4993081;28;20088;-66
2022/01/17 01:55:52;;;;;;;2.53;1.80;;;;;;;0.13;84.48;98174.81;4993110;28;20268;-66
2022/01/17 01:58:20;;;;;;;2.70;2.00;;;;;;;0.24;83.77;98182.34;4993628;28;20296;-67
2022/01/17 02:00:46;;;;;;;2.60;1.43;;;;;;;0.22;83.47;98178.28;4993181;28;20088;-66
2022/01/17 02:03:13;;;;;;;3.40;1.20;;;;;;;0.21;83.01;98182.69;4993053;28;20289;-68
2022/01/17 02:05:40;;;;;;;1.93;1.40;;;;;;;0.18;82.65;98162.06;4993063;28;20046;-68
2022/01/17 02:08:08;;;;;;;3.67;2.30;;;;;;;0.23;82.46;98159.78;4992128;28;20257;-69
2022/01/17 02:10:33;;;;;;;2.20;1.37;;;;;;;0.12;82.72;98162.72;4993131;28;20266;-68
2022/01/17 02:12:59;;;;;;;2.10;1.47;;;;;;;0.15;82.63;98156.34;4993231;28;20289;-69
2022/01/17 02:15:24;;;;;;;3.70;1.50;;;;;;;0.16;82.78;98168.44;4991677;28;20449;-67
2022/01/17 02:17:54;;;;;;;2.70;1.57;;;;;;;0.02;82.75;98141.09;4993016;28;20045;-66
2022/01/17 02:20:35;;;;;;;3.60;1.40;;;;;;;0.08;82.95;98158.78;4993060;28;20121;-68
2022/01/17 02:23:04;;;;;;;2.23;2.03;;;;;;;-0.04;82.30;98136.50;4993021;28;20262;-67
2022/01/17 02:25:30;;;;;;;4.03;1.38;;;;;;;0.08;83.11;98144.88;4992863;28;20773;-67
2022/01/17 02:27:57;;;;;;;2.03;1.03;;;;;;;0.04;83.42;98123.44;4992863;28;20081;-67
2022/01/17 02:30:23;;;;;;;3.97;1.50;;;;;;;0.14;83.54;98124.13;4992943;28;20769;-68
2022/01/17 02:32:49;;;;;;;4.03;1.47;;;;;;;0.11;82.17;98108.75;4992575;28;20819;-66
2022/01/17 02:35:20;;;;;;;8.77;1.63;;;;;;;-0.05;82.84;98072.06;4992640;28;20261;-67
2022/01/17 02:37:46;;;;;;;2.83;1.70;;;;;;;0.14;81.86;98094.50;4991489;28;20485;-67
2022/01/17 02:40:17;;;;;;;1.93;1.73;;;;;;;0.18;81.96;98090.59;4991391;28;20304;-67
2022/01/17 02:42:43;;;;;;;3.70;1.50;;;;;;;0.13;82.45;98079.78;4993019;28;20062;-68
2022/01/17 02:45:30;;;;;;;4.03;1.47;;;;;;;0.19;81.38;98090.41;4992581;28;20628;-67
2022/01/17 02:47:57;;;;;;;2.27;1.47;;;;;;;0.20;81.28;98078.16;4992602;28;20274;-69
2022/01/17 02:50:23;;;;;;;2.93;1.30;;;;;;;0.17;81.23;98075.88;4992623;28;20273;-67
2022/01/17 02:52:49;;;;;;;2.67;1.37;;;;;;;0.16;80.85;98079.47;4992348;28;20835;-67
2022/01/17 02:55:14;;;;;;;10.13;3.67;;;;;;;0.04;80.28;98065.06;4992534;28;20038;-67
2022/01/17 02:57:39;;;;;;;2.57;1.30;;;;;;;0.12;80.02;98080.78;4992817;28;20535;-67
2022/01/17 03:00:09;;;;;;;3.40;2.20;;;;;;;0.09;80.92;98076.69;5007811;28;20038;-66
2022/01/17 03:02:35;;;;;;;4.90;2.97;;;;;;;0.10;80.59;98070.47;4992313;28;20081;-68
2022/01/17 03:05:09;;;;;;;2.23;1.67;;;;;;;0.05;80.81;98067.53;4993071;28;20313;-65
2022/01/17 03:07:34;;;;;;;2.30;1.40;;;;;;;-0.01;80.01;98044.59;4996106;28;20120;-67
2022/01/17 03:10:03;;;;;;;3.27;1.77;;;;;;;0.12;80.51;98055.41;4995053;28;20301;-67
2022/01/17 03:12:30;;;;;;;3.78;1.85;;;;;;;0.19;80.76;98058.19;4996250;28;20065;-66
2022/01/17 03:14:55;;;;;;;2.97;1.67;;;;;;;0.22;79.57;98058.69;4996319;28;20038;-65
2022/01/17 03:17:21;;;;;;;4.47;1.43;;;;;;;0.18;79.93;98039.06;4996207;28;20253;-68
2022/01/17 03:19:46;;;;;;;2.70;1.43;;;;;;;0.08;80.41;98009.63;4996176;28;20125;-67
2022/01/17 03:22:12;;;;;;;2.50;1.60;;;;;;;0.25;79.34;98024.31;4996030;28;20042;-66
2022/01/17 03:24:37;;;;;;;1.43;1.30;;;;;;;0.34;79.15;98029.59;4994745;28;20112;-67
2022/01/17 03:27:03;;;;;;;4.10;1.90;;;;;;;0.30;79.67;98027.28;4995968;28;20034;-66
2022/01/17 03:29:29;;;;;;;2.70;1.67;;;;;;;0.21;79.15;98030.06;4995971;28;20433;-69
2022/01/17 03:31:55;;;;;;;2.27;1.70;;;;;;;0.13;79.12;98016.97;4996678;28;20268;-65
2022/01/17 03:34:20;;;;;;;1.63;1.47;;;;;;;0.16;78.75;98021.88;4996337;28;20042;-68
2022/01/17 03:36:46;;;;;;;1.70;1.50;;;;;;;0.13;79.13;98017.78;4996532;28;20039;-67
2022/01/17 03:39:11;;;;;;;2.67;1.60;;;;;;;0.20;79.21;98025.81;4995881;28;20045;-68
2022/01/17 03:41:37;;;;;;;12.77;4.33;;;;;;;-0.03;79.91;97981.16;4995855;28;20416;-67
2022/01/17 03:44:03;;;;;;;3.63;1.53;;;;;;;0.20;79.71;98010.91;4995606;28;20089;-67
2022/01/17 03:46:29;;;;;;;1.63;1.37;;;;;;;0.21;80.23;98009.13;4996131;28;20121;-67
2022/01/17 03:48:54;;;;;;;5.67;1.50;;;;;;;0.18;79.95;97997.19;4996536;28;20373;-67
2022/01/17 03:51:20;;;;;;;3.73;1.90;;;;;;;0.19;79.03;97985.72;4997663;28;20449;-69
2022/01/17 03:53:45;;;;;;;2.47;1.60;;;;;;;0.26;79.20;97991.94;5002571;28;20038;-65
2022/01/17 03:56:11;;;;;;;4.27;1.67;;;;;;;0.26;79.11;97991.13;5007386;28;20094;-65
2022/01/17 03:58:36;;;;;;;2.70;1.70;;;;;;;0.29;79.50;97996.88;4996891;28;20586;-65
2022/01/17 04:01:03;;;;;;;2.33;1.80;;;;;;;0.33;78.80;98001.78;4994907;28;20042;-68
2022/01/17 04:03:31;;;;;;;2.67;1.80;;;;;;;0.33;78.86;97986.88;4995478;28;20115;-68
2022/01/17 04:05:57;;;;;;;1.67;1.40;;;;;;;0.34;78.04;97974.59;4995328;28;20293;-67
2022/01/17 04:08:23;;;;;;;2.27;1.60;;;;;;;0.28;77.52;97979.50;4995617;28;20274;-68
2022/01/17 04:10:48;;;;;;;2.80;1.40;;;;;;;0.26;78.49;97964.94;4995351;28;20651;-65
2022/01/17 04:13:14;;;;;;;3.17;1.53;;;;;;;0.28;78.84;97955.13;4995992;28;20386;-70
2022/01/17 04:15:39;;;;;;;2.30;1.70;;;;;;;0.36;77.59;97949.06;4995705;28;20030;-68
2022/01/17 04:18:07;;;;;;;4.73;1.80;;;;;;;0.41;77.66;97952.81;4993883;28;20441;-70
2022/01/17 04:20:33;;;;;;;2.30;1.75;;;;;;;0.41;77.59;97941.53;4995776;28;20070;-67
2022/01/17 04:23:02;;;;;;;3.10;2.00;;;;;;;0.47;78.11;97944.28;4995495;28;20105;-69
2022/01/17 04:25:30;;;;;;;2.25;1.70;;;;;;;0.48;77.76;97934.63;4995674;28;20312;-66
2022/01/17 04:28:00;;;;;;;1.80;1.30;;;;;;;0.48;77.47;97932.84;4995666;28;20413;-71
2022/01/17 04:30:26;;;;;;;1.53;1.43;;;;;;;0.48;77.85;97926.78;4995485;28;20368;-66
2022/01/17 04:32:52;;;;;;;2.37;1.70;;;;;;;0.50;78.38;97930.06;5010527;28;20307;-70
2022/01/17 04:35:20;;;;;;;6.90;2.20;;;;;;;0.50;78.62;97920.38;4995887;28;20356;-69
2022/01/17 04:37:56;;;;;;;3.17;1.58;;;;;;;0.49;78.61;97917.94;4996538;28;20034;-71
2022/01/17 04:40:22;;;;;;;2.57;1.63;;;;;;;0.51;78.46;97931.69;4995615;28;20034;-68
2022/01/17 04:42:49;;;;;;;5.23;1.90;;;;;;;0.56;78.70;97934.59;4994861;28;20273;-70
2022/01/17 04:45:18;;;;;;;7.00;2.30;;;;;;;0.51;78.45;97922.03;4994539;28;20771;-69
2022/01/17 04:47:50;;;;;;;5.00;3.17;;;;;;;0.48;78.46;97916.31;4994659;28;20300;-70
2022/01/17 04:50:21;;;;;;;6.83;3.20;;;;;;;0.52;78.86;97918.41;4994556;28;20289;-69
2022/01/17 04:52:48;;;;;;;6.17;2.60;;;;;;;0.50;78.97;97914.34;4994661;28;20384;-69
2022/01/17 04:55:15;;;;;;;4.93;2.47;;;;;;;0.52;79.04;97920.22;4994003;28;20311;-70
2022/01/17 04:57:43;;;;;;;5.27;2.73;;;;;;;0.37;78.26;97895.72;4994615;28;20614;-68
2022/01/17 05:00:11;;;;;;;6.33;3.57;;;;;;;0.45;78.76;97908.78;4993276;28;20274;-69
2022/01/17 05:02:38;;;;;;;3.38;2.58;;;;;;;0.45;78.84;97908.78;4994343;28;20269;-69
2022/01/17 05:05:13;;;;;;;8.83;3.10;;;;;;;0.47;78.53;97906.81;4994243;28;20124;-67
2022/01/17 05:07:40;;;;;;;7.30;3.13;;;;;;;0.43;79.18;97895.88;4994509;28;20278;-70
2022/01/17 05:10:08;;;;;;;5.93;3.70;;;;;;;0.47;80.14;97891.94;4994330;28;20319;-69
2022/01/17 05:12:34;;;;;;;6.22;2.65;;;;;;;0.43;79.63;97880.16;4994141;28;20670;-70
2022/01/17 05:15:00;;;;;;;13.70;4.03;;;;;;;0.48;79.37;97890.13;4994497;28;20427;-68
2022/01/17 05:19:58;;;;;;;5.80;3.33;;;;;;;0.41;80.21;97874.28;4994716;28;20042;-71
2022/01/17 05:22:27;;;;;;;4.60;4.00;;;;;;;0.26;79.81;97860.25;4994393;28;20273;-68
2022/01/17 05:24:52;;;;;;;4.47;3.50;;;;;;;0.24;80.16;97875.31;4994289;28;20782;-68
2022/01/17 05:27:18;;;;;;;6.80;3.90;;;;;;;-0.04;80.91;97843.47;4994186;28;20108;-69
2022/01/17 05:29:46;;;;;;;8.27;4.73;;;;;;;-0.09;80.83;97845.78;4992803;28;20113;-67
2022/01/17 05:32:12;;;;;;;7.30;5.03;;;;;;;0.07;81.66;97877.16;4993571;28;20108;-70
2022/01/17 05:34:40;;;;;;;8.73;4.20;;;;;;;0.01;81.47;97867.34;4993426;28;20274;-70
2022/01/17 05:37:10;;;;;;;9.38;6.00;;;;;;;-0.05;81.03;97852.31;4994034;28;20269;-70
2022/01/17 05:39:37;;;;;;;7.83;4.63;;;;;;;-0.13;81.44;97834.00;4993548;28;20562;-71
2022/01/17 05:42:03;;;;;;;8.73;5.67;;;;;;;-0.13;82.06;97840.06;4993822;28;20269;-72
2022/01/17 05:44:29;;;;;;;12.53;6.37;;;;;;;-0.08;82.28;97831.72;4994035;28;20273;-69
2022/01/17 05:46:55;;;;;;;10.63;5.33;;;;;;;-0.12;82.20;97802.47;5008345;28;20266;-70
2022/01/17 05:49:21;;;;;;;7.87;6.07;;;;;;;-0.01;82.36;97815.16;5007749;28;20364;-74
2022/01/17 05:51:46;;;;;;;9.87;5.70;;;;;;;0.06;82.21;97814.53;4994793;28;20085;-71
2022/01/17 05:54:12;;;;;;;7.77;6.40;;;;;;;0.03;82.38;97802.59;4993255;28;20042;-72
2022/01/17 05:56:37;;;;;;;16.20;8.43;;;;;;;0.01;82.02;97804.56;4994519;28;20034;-70
2022/01/17 05:59:03;;;;;;;13.87;8.97;;;;;;;-0.06;82.36;97793.13;4993273;28;20042;-72
2022/01/17 06:01:29;;;;;;;11.27;7.23;;;;;;;-0.02;82.67;97794.41;4994263;28;20038;-72
2022/01/17 06:03:56;;;;;;;18.70;10.07;;;;;;;-0.04;82.61;97799.00;4994147;28;20136;-72
2022/01/17 06:06:24;;;;;;;11.87;6.50;;;;;;;-0.07;82.36;97796.72;4993690;28;20498;-69
2022/01/17 06:09:16;;;;;;;13.27;6.23;;;;;;;0.00;81.79;97850.03;4990936;28;20895;-66
2022/01/17 06:11:41;;;;;;;12.73;6.17;;;;;;;-0.07;82.19;97852.47;4992382;28;20297;-68
2022/01/17 06:14:08;;;;;;;10.10;6.67;;;;;;;-0.06;82.60;97872.41;4993097;28;20796;-68
2022/01/17 06:16:36;;;;;;;15.57;6.88;;;;;;;-0.04;82.68;97888.75;4993008;28;20045;-71
2022/01/17 06:19:03;;;;;;;8.20;6.07;;;;;;;-0.17;82.83;97877.19;4991171;28;20034;-63
2022/01/17 06:21:29;;;;;;;10.80;7.10;;;;;;;-0.13;82.76;97881.09;4992652;28;20273;-68
2022/01/17 06:23:54;;;;;;;10.77;6.60;;;;;;;-0.08;83.23;97881.41;4991998;28;20288;-69
2022/01/17 06:26:20;;;;;;;12.40;7.33;;;;;;;-0.09;82.78;97861.47;4992056;28;20041;-63
2022/01/17 06:28:46;;;;;;;10.57;7.20;;;;;;;-0.21;82.70;97826.19;4993680;28;20034;-67
2022/01/17 06:31:11;;;;;;;8.20;6.23;;;;;;;-0.10;82.87;97833.69;4992952;28;20069;-69
2022/01/17 06:33:37;;;;;;;11.13;7.60;;;;;;;-0.18;82.85;97823.25;4992655;28;20493;-69
2022/01/17 06:36:03;;;;;;;20.33;11.37;;;;;;;-0.22;83.25;97825.38;4992782;28;20030;-67
2022/01/17 06:38:29;;;;;;;12.83;7.70;;;;;;;-0.14;83.06;97845.47;4993183;28;20038;-65
2022/01/17 06:40:54;;;;;;;13.03;8.07;;;;;;;-0.21;82.87;97844.50;4992265;28;20641;-65
2022/01/17 06:43:20;;;;;;;12.47;6.70;;;;;;;-0.13;83.51;97861.00;4992896;28;20038;-69
2022/01/17 06:45:45;;;;;;;12.00;6.83;;;;;;;-0.03;82.86;97882.53;4992831;28;20038;-69
2022/01/17 06:48:11;;;;;;;15.27;7.83;;;;;;;-0.11;82.47;97879.13;4992720;28;20042;-73
2022/01/17 06:50:37;;;;;;;19.00;9.57;;;;;;;0.04;82.22;97889.75;4993097;28;20470;-65
2022/01/17 06:53:03;;;;;;;24.77;9.20;;;;;;;0.06;82.63;97904.31;4992535;28;20046;-65
2022/01/17 06:55:30;;;;;;;18.43;9.97;;;;;;;0.13;82.35;97918.34;4992787;28;20064;-65
2022/01/17 06:57:55;;;;;;;26.07;13.20;;;;;;;0.14;82.07;97909.50;4992617;28;20327;-65
2022/01/17 07:00:21;;;;;;;15.33;9.47;;;;;;;0.14;82.20;97922.59;4992454;28;20694;-65
2022/01/17 07:02:48;;;;;;;15.80;9.13;;;;;;;0.20;81.79;97921.13;4992124;28;20395;-67
2022/01/17 07:05:16;;;;;;;17.93;9.97;;;;;;;0.27;82.31;97915.03;4993273;28;20042;-66
2022/01/17 07:07:43;;;;;;;21.37;11.47;;;;;;;0.28;82.08;97921.91;4991779;28;20292;-67
2022/01/17 07:10:09;;;;;;;18.17;9.23;;;;;;;0.22;81.82;97922.56;4992575;28;20818;-68
2022/01/17 07:12:38;;;;;;;16.73;9.43;;;;;;;0.24;82.27;97910.13;4992885;28;20339;-81
2022/01/17 07:15:05;;;;;;;22.40;11.73;;;;;;;0.22;81.72;97882.50;4994157;28;20045;-71
2022/01/17 07:17:30;;;;;;;18.57;12.20;;;;;;;0.22;81.86;97880.69;4994713;28;20390;-73
2022/01/17 07:19:56;;;;;;;14.50;10.17;;;;;;;0.23;81.63;97881.53;4994735;28;20279;-77
2022/01/17 07:22:21;;;;;;;24.77;11.20;;;;;;;0.26;82.21;97892.47;4992898;28;20045;-73
2022/01/17 07:24:47;;;;;;;22.70;11.23;;;;;;;0.32;81.65;97900.66;5007812;28;20470;-64
2022/01/17 07:27:14;;;;;;;18.63;11.43;;;;;;;0.33;81.27;97915.38;4992408;28;20416;-75
2022/01/17 07:29:42;;;;;;;15.10;9.40;;;;;;;0.39;81.42;97917.31;4992280;28;20034;-67
2022/01/17 07:32:08;;;;;;;17.80;10.03;;;;;;;0.40;81.98;97914.53;4994409;28;20300;-64
2022/01/17 07:34:34;;;;;;;18.73;9.47;;;;;;;0.41;81.50;97904.88;4997732;28;20274;-72
2022/01/17 07:37:00;;;;;;;17.80;10.13;;;;;;;0.47;81.50;97919.91;4997844;28;20285;-73
2022/01/17 07:39:26;;;;;;;18.63;9.50;;;;;;;0.49;81.07;97924.00;4992823;28;20485;-73
2022/01/17 07:41:52;;;;;;;19.87;10.20;;;;;;;0.42;81.45;97917.81;4992650;28;20089;-67
2022/01/17 07:44:23;;;;;;;17.33;10.30;;;;;;;0.35;81.70;97908.19;4992240;28;20281;-68
2022/01/17 07:46:55;;;;;;;21.63;10.80;;;;;;;0.07;81.88;97874.53;4992071;28;20100;-76
2022/01/17 07:49:21;;;;;;;14.47;9.97;;;;;;;0.24;82.43;97912.75;4992950;28;20311;-64
2022/01/17 07:51:51;;;;;;;18.20;9.57;;;;;;;0.21;82.62;97894.78;4992426;28;20265;-67
2022/01/17 07:54:18;;;;;;;;;;;;;;;0.40;82.25;97898.00;4995893;28;20289;-68
2022/01/17 07:56:44;;;;;;;22.77;10.63;;;;;;;0.43;81.72;97918.63;4995560;28;19918;-70
2022/01/17 07:59:10;;;;;;;16.70;10.53;;;;;;;0.21;81.38;97868.59;4995478;28;20281;-71
2022/01/17 08:01:37;;;;;;;19.10;8.70;;;;;;;0.40;81.75;97895.41;4995812;28;20277;-71
2022/01/17 08:04:04;;;;;;;14.77;8.63;;;;;;;0.52;82.04;97913.19;4995484;28;20293;-70
2022/01/17 08:06:30;;;;;;;13.17;9.20;;;;;;;0.58;81.54;97925.63;4995404;28;20287;-69
2022/01/17 08:08:57;;;;;;;16.73;9.60;;;;;;;0.56;80.84;97911.84;4995339;28;20641;-69
2022/01/17 08:11:28;;;;;;;13.40;9.00;;;;;;;0.74;80.65;97942.25;4995279;28;20133;-69
2022/01/17 08:13:53;;;;;;;21.37;10.10;;;;;;;0.76;80.25;97951.56;4995507;28;20387;-68
2022/01/17 08:16:19;;;;;;;17.60;10.83;;;;;;;0.77;79.75;97968.13;4991422;28;20034;-70
2022/01/17 08:18:45;;;;;;;24.37;12.97;;;;;;;0.73;80.59;97966.81;4976364;28;20052;-70
2022/01/17 08:21:10;;;;;;;19.93;10.43;;;;;;;0.78;80.81;97970.56;4974515;28;20453;-68
2022/01/17 08:23:36;;;;;;;18.03;11.70;;;;;;;0.82;80.07;97982.34;4976009;28;20044;-69
2022/01/17 08:26:02;;;;;;;16.70;11.83;;;;;;;0.68;79.72;97964.72;4975898;28;20457;-69
2022/01/17 08:28:28;;;;;;;18.43;11.57;;;;;;;0.53;80.23;97950.66;4976083;28;20141;-73
2022/01/17 08:30:53;;;;;;;20.07;11.53;;;;;;;0.73;80.63;97987.78;4976402;28;20745;-73
2022/01/17 08:33:19;;;;;;;18.27;11.07;;;;;;;0.79;80.15;97984.47;4976284;28;20088;-67
2022/01/17 08:35:44;;;;;;;18.10;11.33;;;;;;;0.85;79.21;97996.91;4975998;28;20046;-70
2022/01/17 08:38:10;;;;;;;18.43;12.70;;;;;;;0.79;79.67;97998.41;4975801;28;20031;-72
2022/01/17 08:40:36;;;;;;;18.37;11.23;;;;;;;0.90;79.25;98007.72;4958339;28;20031;-72
2022/01/17 08:43:01;;;;;;;22.90;13.47;;;;;;;0.94;79.62;98022.13;4975505;28;20475;-72
2022/01/17 08:45:29;;;;;;;15.73;10.43;;;;;;;0.93;79.62;98004.75;4975858;28;20039;-79
2022/01/17 08:47:54;;;;;;;17.13;12.00;;;;;;;1.13;79.30;98028.75;4975761;28;20561;-72
2022/01/17 08:50:22;;;;;;;19.83;12.30;;;;;;;1.18;79.36;98019.41;4975671;28;20382;-77
2022/01/17 08:52:48;;;;;;;22.57;11.73;;;;;;;1.21;78.41;98023.50;4975571;28;20517;-75
2022/01/17 08:55:16;;;;;;;21.37;11.40;;;;;;;1.16;78.99;98020.56;4975976;28;20273;-74
2022/01/17 08:57:42;;;;;;;19.70;11.23;;;;;;;1.24;78.68;98017.91;4976640;28;20373;-75
2022/01/17 09:00:14;;;;;;;14.80;10.13;;;;;;;1.38;78.25;98038.16;4976428;28;20341;-75
2022/01/17 09:02:40;;;;;;;20.30;11.63;;;;;;;1.33;78.33;98030.00;4975871;28;20328;-77
2022/01/17 09:05:07;;;;;;;18.73;11.00;;;;;;;1.37;77.73;98039.16;4975663;28;20339;-74
2022/01/17 09:07:33;;;;;;;19.30;11.57;;;;;;;1.41;78.05;98045.69;4975481;28;20634;-69
2022/01/17 09:09:58;;;;;;;22.20;11.87;;;;;;;1.40;77.90;98037.97;4975572;28;20486;-76
2022/01/17 09:12:25;;;;;;;21.17;11.20;;;;;;;1.43;77.54;98051.56;4975735;28;20046;-76
2022/01/17 09:14:51;;;;;;;16.37;9.80;;;;;;;1.44;77.35;98047.13;4975064;28;20289;-72
2022/01/17 09:17:16;;;;;;;14.20;8.33;;;;;;;1.43;77.00;98056.81;4974923;28;20050;-74
2022/01/17 09:19:43;;;;;;;16.17;8.77;;;;;;;1.41;76.63;98057.97;4975093;28;20501;-70
2022/01/17 09:22:10;;;;;;;15.77;9.30;;;;;;;1.35;76.74;98062.09;4974863;28;20082;-70
2022/01/17 09:24:38;;;;;;;14.77;10.17;;;;;;;1.33;77.03;98061.44;4974605;28;20421;-72
2022/01/17 09:27:06;;;;;;;14.48;8.20;;;;;;;1.26;76.92;98057.06;4973438;28;20283;-67
2022/01/17 09:29:33;;;;;;;17.03;9.73;;;;;;;1.23;77.12;98073.94;4974772;28;20043;-72
2022/01/17 09:31:58;;;;;;;23.20;10.77;;;;;;;1.10;76.89;98068.41;4974769;28;20757;-68
2022/01/17 09:34:24;;;;;;;18.40;11.37;;;;;;;1.05;76.98;98065.47;4974573;28;20297;-73
2022/01/17 09:36:50;;;;;;;15.17;11.50;;;;;;;1.04;77.21;98069.09;4982233;28;20512;-72
2022/01/17 09:39:15;;;;;;;16.43;10.43;;;;;;;1.06;76.79;98085.47;4993903;28;20049;-73
2022/01/17 09:41:41;;;;;;;13.60;9.57;;;;;;;1.01;77.20;98095.63;4996375;28;20038;-65
2022/01/17 09:44:09;;;;;;;16.60;9.70;;;;;;;1.04;77.05;98097.91;5014003;28;20034;-67
2022/01/17 09:46:40;;;;;;;15.63;9.63;;;;;;;1.09;77.65;98119.19;5000296;28;20030;-69
2022/01/17 09:49:44;;;;;;;16.13;10.40;;;;;;;1.10;76.86;98115.59;4990687;28;20265;-66
2022/01/17 09:52:06;;;;;;;21.13;10.40;;;;;;;1.06;76.62;98106.44;4979777;28;20278;-67
2022/01/17 09:54:39;;;;;;;17.97;8.60;;;;;;;1.10;76.83;98111.16;4989453;28;20321;-68
2022/01/17 09:57:06;;;;;;;15.87;9.70;;;;;;;1.17;75.74;98121.81;4986136;28;20356;-70
2022/01/17 09:59:34;;;;;;;14.37;9.13;;;;;;;1.08;76.28;98121.00;4987239;28;20737;-71
2022/01/17 10:02:00;;;;;;;15.00;9.23;;;;;;;1.01;76.90;98117.41;4982281;28;20266;-70
2022/01/17 10:04:26;;;;;;;25.20;14.13;;;;;;;0.81;77.13;98097.78;4982369;28;20657;-70
2022/01/17 10:06:57;;;;;;;14.37;9.13;;;;;;;0.98;76.76;98116.94;4984706;28;20073;-69
2022/01/17 10:09:25;;;;;;;18.97;9.10;;;;;;;0.94;76.68;98124.31;4974645;28;20281;-77
2022/01/17 10:12:11;;;;;;;13.30;9.27;;;;;;;0.98;76.53;98122.16;4974989;28;20274;-77
2022/01/17 10:14:41;;;;;;;15.70;10.93;;;;;;;1.05;77.13;98144.09;4974524;28;20310;-67
2022/01/17 10:17:15;;;;;;;16.13;10.53;;;;;;;0.95;76.72;98128.56;4999696;28;20271;-65
2022/01/17 10:19:42;;;;;;;15.43;9.13;;;;;;;0.88;76.67;98136.28;4984642;28;20266;-70
2022/01/17 10:22:24;;;;;;;23.10;9.80;;;;;;;0.98;77.04;98151.00;4984477;28;20336;-66
2022/01/17 10:25:07;;;;;;;18.97;10.57;;;;;;;0.90;76.18;98157.91;4990128;28;20277;-68
2022/01/17 10:28:44;;;;;;;12.03;8.60;;;;;;;0.88;76.38;98153.81;5007617;28;20262;-65
2022/01/17 10:35:57;;;;;;;13.00;8.07;;;;;;;0.52;76.42;98182.09;4993359;28;20348;-66
2022/01/17 10:38:25;;;;;;;;;;;;;;;0.48;76.03;98186.00;4993143;28;20270;-67
2022/01/17 10:40:56;;;;;;;13.73;7.40;;;;;;;0.22;74.07;98184.31;4992789;28;19917;-67
2022/01/17 10:43:28;;;;;;;11.60;8.27;;;;;;;0.29;75.73;98206.28;4992706;28;20865;-66
2022/01/17 10:45:56;;;;;;;7.43;4.17;;;;;;;0.11;73.09;98189.88;4992631;28;20294;-65
2022/01/17 10:48:37;;;;;;;7.87;5.63;;;;;;;0.08;73.19;98200.66;4992743;28;20257;-66
2022/01/17 10:51:06;;;;;;;6.77;3.73;;;;;;;0.00;73.54;98200.63;4992875;28;20265;-66
2022/01/17 10:53:32;;;;;;;6.95;3.85;;;;;;;0.08;73.51;98234.69;4992930;28;20296;-67
2022/01/17 10:55:59;;;;;;;8.17;4.00;;;;;;;-0.14;73.44;98215.13;4992561;28;20550;-67
2022/01/17 10:58:31;;;;;;;7.20;4.13;;;;;;;-0.03;74.19;98238.38;4993489;28;20641;-66
2022/01/17 11:01:00;;;;;;;8.73;3.73;;;;;;;-0.46;74.46;98168.72;4995468;28;20268;-64
2022/01/17 11:03:31;;;;;;;5.50;4.23;;;;;;;-0.02;74.71;98254.88;4995751;28;20305;-68
2022/01/17 11:06:03;;;;;;;8.17;3.60;;;;;;;-0.12;75.31;98259.44;4993263;28;20808;-65
2022/01/17 11:08:30;;;;;;;6.57;3.77;;;;;;;-0.27;74.70;98258.38;4992762;28;20281;-67
2022/01/17 11:10:58;;;;;;;9.90;3.10;;;;;;;-0.31;75.17;98276.16;4993024;28;20257;-67
2022/01/17 11:13:28;;;;;;;11.53;4.23;;;;;;;-0.44;73.83;98276.56;4992441;28;20773;-66
2022/01/17 11:15:57;;;;;;;9.13;3.13;;;;;;;-0.45;74.24;98285.41;4992532;28;20367;-67
2022/01/17 11:18:26;;;;;;;5.88;2.80;;;;;;;-0.54;73.42;98295.97;4994529;28;20279;-66
2022/01/17 11:21:00;;;;;;;4.00;2.20;;;;;;;-0.63;73.11;98295.88;4993577;28;20030;-65
2022/01/17 11:23:27;;;;;;;4.97;2.30;;;;;;;-0.83;71.08;98288.38;4993849;28;20320;-66
2022/01/17 11:25:56;;;;;;;3.33;2.20;;;;;;;-0.86;71.65;98292.13;4991488;28;20272;-67
2022/01/17 11:28:25;;;;;;;5.53;2.80;;;;;;;-0.98;70.35;98294.13;4995341;28;20769;-64
2022/01/17 11:30:54;;;;;;;3.23;2.20;;;;;;;-1.08;70.67;98296.00;4994965;28;20045;-65
2022/01/17 11:33:21;;;;;;;2.87;2.37;;;;;;;-1.13;69.92;98303.47;4996175;28;20297;-65
2022/01/17 11:35:51;;;;;;;3.67;2.90;;;;;;;-1.27;68.90;98290.91;4996154;28;20677;-65
2022/01/17 11:38:23;;;;;;;4.27;2.27;;;;;;;-1.52;69.33;98268.13;4996291;28;20278;-66
2022/01/17 11:40:50;;;;;;;2.57;2.30;;;;;;;-1.28;69.96;98320.59;4996306;28;20272;-67
2022/01/17 11:43:23;;;;;;;3.73;2.40;;;;;;;-1.32;70.73;98325.28;4996083;28;20269;-64
2022/01/17 11:45:51;;;;;;;3.37;2.00;;;;;;;-1.34;69.36;98334.25;4996099;28;20269;-67
2022/01/17 11:48:29;;;;;;;2.90;2.03;;;;;;;-1.39;69.14;98336.47;4995893;28;20669;-66
2022/01/17 11:51:15;;;;;;;4.35;2.28;;;;;;;-1.40;69.92;98350.50;4995811;28;20034;-67
2022/01/17 11:53:44;;;;;;;3.17;2.20;;;;;;;-1.53;69.16;98350.00;4995786;28;20042;-64
2022/01/17 11:56:13;;;;;;;4.97;2.20;;;;;;;-1.51;69.92;98363.72;4995492;28;20698;-63
2022/01/17 11:58:42;;;;;;;4.68;2.38;;;;;;;-1.60;70.44;98360.22;4995413;28;20312;-65